Time;durP1;ratioP1;P1;durP2;ratioP2;P2;SDS_P1;SDS_P2;PMS_P1;PMS_P2;Temp;Humidity;BMP_temperature;BMP_pressure;BME280_temperature;BME280_humidity;BME280_pressure;Samples;Min_cycle;Max_cycle;Signal;HPM_P1;HPM_P2
2022/03/07 00:01:25;;;;;;;41.97;29.38;;;;;;;3.98;92.13;99425.41;5049257;28;20470;-61
2022/03/07 00:03:54;;;;;;;40.00;25.93;;;;;;;4.08;91.66;99436.81;5050453;28;20196;-61
2022/03/07 00:06:21;;;;;;;38.03;25.20;;;;;;;4.01;91.09;99424.69;5050437;28;20282;-62
2022/03/07 00:08:48;;;;;;;40.17;25.17;;;;;;;3.99;91.26;99434.78;5050484;28;20196;-61
2022/03/07 00:11:16;;;;;;;40.97;25.47;;;;;;;4.02;90.95;99432.34;5050188;28;20216;-61
2022/03/07 00:13:42;;;;;;;39.93;25.37;;;;;;;4.06;90.97;99431.69;5050100;28;20574;-61
2022/03/07 00:16:10;;;;;;;45.93;25.60;;;;;;;3.98;90.80;99425.41;5050316;28;20192;-61
2022/03/07 00:18:37;;;;;;;45.50;26.77;;;;;;;3.96;91.23;99421.06;5050086;28;20705;-62
2022/03/07 00:21:07;;;;;;;44.90;26.50;;;;;;;3.93;91.48;99424.34;5050026;28;20737;-62
2022/03/07 00:23:34;;;;;;;41.37;26.90;;;;;;;3.87;91.49;99430.88;5050684;28;20197;-61
2022/03/07 00:26:01;;;;;;;46.50;26.00;;;;;;;3.85;92.01;99423.16;5050464;28;20189;-62
2022/03/07 00:28:28;;;;;;;52.75;32.13;;;;;;;3.83;91.73;99422.25;5049804;28;20455;-60
2022/03/07 00:30:55;;;;;;;59.70;31.67;;;;;;;3.83;92.55;99419.69;5050402;28;21023;-62
2022/03/07 00:33:21;;;;;;;52.20;30.97;;;;;;;3.85;92.41;99420.63;5051319;28;20196;-61
2022/03/07 00:35:48;;;;;;;52.33;29.60;;;;;;;3.88;92.35;99418.22;5054238;28;20196;-61
2022/03/07 00:38:17;;;;;;;53.20;30.10;;;;;;;3.90;92.89;99416.59;5054522;28;20204;-61
2022/03/07 00:40:44;;;;;;;43.90;27.33;;;;;;;3.91;92.57;99413.25;5054177;28;20314;-61
2022/03/07 00:43:11;;;;;;;42.80;27.00;;;;;;;3.93;92.71;99409.09;5054239;28;21054;-62
2022/03/07 00:45:38;;;;;;;47.10;27.27;;;;;;;3.91;92.78;99407.31;5054129;28;20202;-61
2022/03/07 00:48:05;;;;;;;49.53;27.67;;;;;;;3.88;92.12;99404.63;5054045;28;20192;-61
2022/03/07 00:50:33;;;;;;;48.37;27.77;;;;;;;3.77;92.94;99395.69;5054007;28;20228;-60
2022/03/07 00:53:00;;;;;;;42.70;27.43;;;;;;;3.86;92.85;99409.66;5053817;28;20199;-60
2022/03/07 00:55:29;;;;;;;45.73;28.60;;;;;;;3.81;92.57;99401.00;5053951;28;20224;-60
2022/03/07 00:57:55;;;;;;;57.75;37.28;;;;;;;3.94;92.58;99415.94;5052678;28;20853;-61
2022/03/07 01:00:22;;;;;;;51.63;32.13;;;;;;;3.98;92.87;99407.59;5053838;28;20276;-61
2022/03/07 01:02:50;;;;;;;48.53;30.83;;;;;;;3.93;92.36;99409.09;5053644;28;20196;-61
2022/03/07 01:05:18;;;;;;;51.97;31.50;;;;;;;3.93;92.20;99404.00;5053599;28;20202;-61
2022/03/07 01:07:44;;;;;;;45.93;28.93;;;;;;;3.96;92.49;99406.69;5052468;28;20223;-60
2022/03/07 01:10:11;;;;;;;47.20;28.40;;;;;;;3.96;92.44;99416.84;5033559;28;20228;-61
2022/03/07 01:12:40;;;;;;;46.17;29.30;;;;;;;3.93;92.37;99404.00;5033822;28;20196;-61
2022/03/07 01:15:09;;;;;;;47.77;26.47;;;;;;;3.90;92.01;99418.28;5039280;28;20287;-61
2022/03/07 01:17:36;;;;;;;48.20;30.50;;;;;;;3.85;92.00;99412.13;5053331;28;20424;-61
2022/03/07 01:20:03;;;;;;;47.13;29.93;;;;;;;3.92;92.80;99420.09;5053296;28;20192;-61
2022/03/07 01:22:30;;;;;;;42.63;28.30;;;;;;;3.92;92.59;99417.53;5053490;28;20237;-61
2022/03/07 01:24:57;;;;;;;47.25;31.05;;;;;;;3.95;92.64;99417.69;5052848;28;20450;-61
2022/03/07 01:27:24;;;;;;;45.13;29.97;;;;;;;3.97;92.41;99418.59;5053320;28;20205;-61
2022/03/07 01:29:52;;;;;;;47.43;30.13;;;;;;;4.04;93.10;99418.03;5053102;28;20233;-60
2022/03/07 01:32:19;;;;;;;52.10;30.40;;;;;;;4.00;92.90;99407.69;5053221;28;20293;-60
2022/03/07 01:34:46;;;;;;;45.13;26.97;;;;;;;3.97;92.62;99405.00;5053069;28;20682;-62
2022/03/07 01:37:13;;;;;;;39.43;25.43;;;;;;;3.97;92.43;99415.19;5053468;28;20194;-61
2022/03/07 01:39:40;;;;;;;41.30;26.33;;;;;;;3.99;92.19;99408.47;5052998;28;20200;-61
2022/03/07 01:42:07;;;;;;;45.93;26.43;;;;;;;3.94;91.79;99405.75;5058171;28;20199;-62
2022/03/07 01:44:34;;;;;;;37.20;24.77;;;;;;;3.94;92.45;99402.34;5071986;28;20273;-62
2022/03/07 01:47:03;;;;;;;38.07;25.07;;;;;;;3.95;91.96;99402.44;5067935;28;20591;-61
2022/03/07 01:49:30;;;;;;;40.60;26.73;;;;;;;3.98;92.06;99402.53;5052556;28;20209;-62
2022/03/07 01:51:57;;;;;;;41.67;26.43;;;;;;;3.98;91.79;99397.44;5043206;28;20220;-61
2022/03/07 01:54:25;;;;;;;37.07;24.30;;;;;;;3.84;92.20;99364.69;5032627;28;20204;-61
2022/03/07 01:56:53;;;;;;;38.93;25.47;;;;;;;4.01;92.40;99394.19;5033041;28;20200;-61
2022/03/07 01:59:22;;;;;;;41.37;25.83;;;;;;;4.02;92.60;99393.34;5032807;28;20225;-61
2022/03/07 02:01:49;;;;;;;39.07;25.57;;;;;;;4.04;92.40;99394.28;5041220;28;20263;-57
2022/03/07 02:04:18;;;;;;;42.43;26.10;;;;;;;3.98;92.24;99397.44;5052593;28;20204;-58
2022/03/07 02:06:46;;;;;;;41.53;24.13;;;;;;;3.96;91.92;99393.97;5052367;28;20188;-58
2022/03/07 02:09:14;;;;;;;41.87;24.40;;;;;;;3.98;91.84;99397.44;5052487;28;20199;-58
2022/03/07 02:11:41;;;;;;;38.37;24.50;;;;;;;3.90;92.21;99386.09;5052384;28;20212;-58
2022/03/07 02:14:12;;;;;;;43.63;26.00;;;;;;;3.88;92.66;99397.88;5029928;28;20644;-58
2022/03/07 02:16:39;;;;;;;37.70;22.70;;;;;;;3.90;93.06;99391.19;5032580;28;20217;-58
2022/03/07 02:19:06;;;;;;;44.43;26.33;;;;;;;3.92;92.23;99394.69;5034393;28;20288;-58
2022/03/07 02:21:36;;;;;;;36.50;24.13;;;;;;;3.97;92.20;99394.84;5032078;28;20186;-58
2022/03/07 02:24:05;;;;;;;42.07;24.33;;;;;;;3.97;91.95;99398.25;5032229;28;20715;-57
2022/03/07 02:26:32;;;;;;;41.30;26.53;;;;;;;3.99;92.15;99401.72;5032166;28;20203;-58
2022/03/07 02:28:59;;;;;;;38.00;23.53;;;;;;;3.94;92.18;99402.34;5032096;28;20719;-58
2022/03/07 02:31:26;;;;;;;42.33;24.67;;;;;;;3.97;92.88;99405.00;5032148;28;20308;-58
2022/03/07 02:33:53;;;;;;;37.37;24.73;;;;;;;3.98;92.39;99406.75;5031839;28;20194;-58
2022/03/07 02:36:20;;;;;;;38.17;25.33;;;;;;;4.02;91.90;99399.31;5041702;28;20591;-58
2022/03/07 02:38:47;;;;;;;39.63;23.73;;;;;;;4.01;92.23;99399.25;5051830;28;20189;-58
2022/03/07 02:41:15;;;;;;;36.50;23.23;;;;;;;3.99;92.28;99396.66;5051787;28;20186;-58
2022/03/07 02:43:42;;;;;;;41.78;26.73;;;;;;;4.01;92.24;99406.91;5051218;28;21036;-58
2022/03/07 02:46:09;;;;;;;35.73;22.47;;;;;;;3.97;92.08;99407.56;5051753;28;20200;-58
2022/03/07 02:48:36;;;;;;;40.97;24.20;;;;;;;3.95;92.27;99404.97;5051640;28;20192;-57
2022/03/07 02:51:03;;;;;;;40.77;27.03;;;;;;;3.95;92.21;99396.47;5050791;28;20975;-58
2022/03/07 02:53:30;;;;;;;39.10;24.13;;;;;;;4.05;91.81;99401.09;5051822;28;20275;-58
2022/03/07 02:55:57;;;;;;;38.67;24.03;;;;;;;4.09;91.63;99402.97;5051435;28;20276;-58
2022/03/07 02:58:26;;;;;;;37.87;23.47;;;;;;;4.10;91.40;99397.94;5051705;28;20570;-58
2022/03/07 03:00:53;;;;;;;39.30;24.23;;;;;;;4.04;91.23;99397.69;5051445;28;20278;-58
2022/03/07 03:03:20;;;;;;;40.97;23.40;;;;;;;3.98;91.96;99405.06;5051416;28;20200;-58
2022/03/07 03:05:46;;;;;;;41.30;25.30;;;;;;;3.88;91.67;99397.88;5051647;28;20196;-58
2022/03/07 03:08:13;;;;;;;37.70;24.10;;;;;;;3.90;91.92;99406.44;5051592;28;20188;-58
2022/03/07 03:10:40;;;;;;;41.77;24.50;;;;;;;3.95;92.78;99410.06;5050849;28;20583;-58
2022/03/07 03:13:07;;;;;;;41.93;24.87;;;;;;;3.99;93.15;99409.34;5050940;28;20211;-58
2022/03/07 03:15:36;;;;;;;37.60;22.10;;;;;;;3.94;92.21;99413.38;5051241;28;20224;-58
2022/03/07 03:18:03;;;;;;;42.97;25.77;;;;;;;3.96;92.22;99414.31;5051253;28;20262;-58
2022/03/07 03:20:30;;;;;;;38.37;24.13;;;;;;;4.02;92.52;99411.16;5051043;28;20223;-58
2022/03/07 03:22:56;;;;;;;38.93;23.30;;;;;;;3.94;92.20;99415.94;5051365;28;20280;-58
2022/03/07 03:25:23;;;;;;;39.77;25.40;;;;;;;3.99;92.84;99411.91;5051174;28;20222;-58
2022/03/07 03:27:50;;;;;;;40.57;24.30;;;;;;;4.06;93.18;99413.03;5051295;28;20281;-58
2022/03/07 03:30:17;;;;;;;36.83;22.70;;;;;;;3.99;92.49;99411.91;5050897;28;20293;-58
2022/03/07 03:32:45;;;;;;;37.80;23.70;;;;;;;4.09;93.41;99415.69;5050776;28;20208;-57
2022/03/07 03:35:12;;;;;;;41.60;24.30;;;;;;;4.10;92.58;99412.31;5050737;28;20238;-58
2022/03/07 03:37:39;;;;;;;33.77;21.63;;;;;;;4.07;92.68;99402.91;5050746;28;20206;-58
2022/03/07 03:40:08;;;;;;;35.53;23.85;;;;;;;4.12;92.03;99409.03;5050622;28;20439;-58
2022/03/07 03:42:35;;;;;;;32.37;20.50;;;;;;;4.13;91.79;99408.22;5050699;28;20201;-57
2022/03/07 03:45:05;;;;;;;31.93;20.27;;;;;;;4.14;92.00;99412.53;5050763;28;20197;-58
2022/03/07 03:47:32;;;;;;;38.03;24.23;;;;;;;4.15;91.97;99415.91;5050567;28;20445;-58
2022/03/07 03:50:00;;;;;;;28.83;19.40;;;;;;;4.15;91.29;99411.69;5050735;28;20196;-58
2022/03/07 03:52:28;;;;;;;31.73;20.93;;;;;;;4.17;91.57;99421.94;5050485;28;20307;-58
2022/03/07 03:54:55;;;;;;;31.50;21.27;;;;;;;4.15;91.60;99411.69;5050660;28;20215;-58
2022/03/07 03:57:22;;;;;;;30.50;20.37;;;;;;;4.15;91.53;99418.44;5050409;28;20189;-58
2022/03/07 03:59:49;;;;;;;25.20;16.93;;;;;;;4.08;92.41;99412.28;5050781;28;20195;-58
2022/03/07 04:02:16;;;;;;;26.07;17.30;;;;;;;4.13;92.13;99413.31;5050584;28;20279;-58
2022/03/07 04:04:43;;;;;;;25.20;17.20;;;;;;;4.12;92.04;99415.81;5050263;28;20197;-58
2022/03/07 04:07:12;;;;;;;24.50;16.63;;;;;;;4.13;91.42;99405.69;5050328;28;20200;-58
2022/03/07 04:09:38;;;;;;;22.63;16.37;;;;;;;4.04;92.23;99415.47;5049865;28;20280;-57
2022/03/07 04:12:06;;;;;;;23.67;16.80;;;;;;;4.00;91.62;99411.09;5050252;28;20212;-58
2022/03/07 04:14:33;;;;;;;28.90;18.83;;;;;;;4.07;91.59;99407.09;5050210;28;20204;-58
2022/03/07 04:17:00;;;;;;;23.90;16.93;;;;;;;4.06;92.15;99407.94;5049713;28;20702;-58
2022/03/07 04:19:27;;;;;;;25.83;17.27;;;;;;;4.08;91.54;99407.19;5050215;28;20198;-57
2022/03/07 04:21:53;;;;;;;28.20;17.53;;;;;;;4.11;91.09;99407.31;5049796;28;20204;-58
2022/03/07 04:24:22;;;;;;;27.40;17.43;;;;;;;4.12;90.79;99413.28;5037032;28;20532;-58
2022/03/07 04:26:49;;;;;;;25.13;18.53;;;;;;;4.12;91.33;99408.19;5030479;28;20201;-58
2022/03/07 04:29:15;;;;;;;28.23;17.97;;;;;;;4.15;91.61;99409.16;5030484;28;20959;-57
2022/03/07 04:31:44;;;;;;;27.00;18.70;;;;;;;4.22;91.33;99409.41;5030393;28;20247;-58
2022/03/07 04:34:13;;;;;;;28.43;18.20;;;;;;;4.22;91.01;99399.25;5030220;28;20250;-58
2022/03/07 04:36:41;;;;;;;27.30;18.97;;;;;;;4.20;91.59;99401.72;5030199;28;20279;-58
2022/03/07 04:39:09;;;;;;;29.80;18.70;;;;;;;4.22;91.07;99389.06;5021758;28;20205;-58
2022/03/07 04:41:39;;;;;;;26.20;19.07;;;;;;;4.26;90.87;99388.41;5030380;28;20185;-58
2022/03/07 04:44:06;;;;;;;29.03;20.03;;;;;;;4.31;91.17;99386.91;5040363;28;20199;-58
2022/03/07 04:46:34;;;;;;;28.57;20.30;;;;;;;4.34;90.86;99387.84;5049670;28;20202;-58
2022/03/07 04:49:01;;;;;;;26.03;18.10;;;;;;;4.33;90.60;99385.28;5049973;28;20707;-58
2022/03/07 04:51:28;;;;;;;29.70;19.03;;;;;;;4.36;90.28;99385.38;5049785;28;20220;-59
2022/03/07 04:53:55;;;;;;;24.60;18.73;;;;;;;4.36;89.73;99377.75;5049706;28;20201;-58
2022/03/07 04:56:22;;;;;;;30.17;20.00;;;;;;;4.36;90.39;99382.84;5049980;28;20693;-58
2022/03/07 04:58:50;;;;;;;33.40;21.47;;;;;;;4.38;90.24;99388.84;5050033;28;20275;-58
2022/03/07 05:01:17;;;;;;;34.77;23.07;;;;;;;4.41;89.86;99381.34;5049714;28;20198;-58
2022/03/07 05:03:44;;;;;;;33.03;22.37;;;;;;;4.42;89.70;99388.19;5049659;28;20228;-58
2022/03/07 05:06:11;;;;;;;39.47;26.27;;;;;;;4.42;90.19;99383.94;5050039;28;20197;-58
2022/03/07 05:08:38;;;;;;;33.60;23.10;;;;;;;4.37;89.34;99384.59;5050006;28;20194;-58
2022/03/07 05:11:06;;;;;;;34.70;23.07;;;;;;;4.30;89.06;99387.69;5049733;28;20231;-58
2022/03/07 05:13:33;;;;;;;31.10;21.03;;;;;;;4.26;89.46;99389.22;5049699;28;20276;-59
2022/03/07 05:16:03;;;;;;;34.60;23.30;;;;;;;4.18;89.42;99399.13;5049487;28;20288;-58
2022/03/07 05:18:30;;;;;;;32.93;23.60;;;;;;;4.07;89.87;99397.81;5049502;28;20686;-59
2022/03/07 05:20:56;;;;;;;30.07;22.27;;;;;;;4.04;90.28;99399.34;5052924;28;20209;-58
2022/03/07 05:23:23;;;;;;;32.37;23.67;;;;;;;4.03;90.74;99402.72;5053057;28;20218;-59
2022/03/07 05:25:50;;;;;;;39.50;26.40;;;;;;;4.02;91.19;99401.84;5053529;28;20193;-58
2022/03/07 05:28:17;;;;;;;43.57;27.87;;;;;;;4.15;91.19;99403.19;5053216;28;20207;-58
2022/03/07 05:30:44;;;;;;;41.60;30.00;;;;;;;4.09;91.58;99411.44;5052796;28;20232;-58
2022/03/07 05:33:13;;;;;;;44.70;30.30;;;;;;;4.04;92.17;99410.41;5053052;28;20197;-58
2022/03/07 05:35:40;;;;;;;48.50;31.07;;;;;;;3.89;92.80;99416.53;5053075;28;20669;-58
2022/03/07 05:38:08;;;;;;;45.60;30.13;;;;;;;3.89;92.55;99406.38;5052955;28;20678;-57
2022/03/07 05:40:35;;;;;;;59.78;40.88;;;;;;;3.77;92.54;99414.34;5052618;28;20479;-58
2022/03/07 05:43:02;;;;;;;54.50;36.80;;;;;;;3.82;93.53;99407.78;5052241;28;20192;-58
2022/03/07 05:45:29;;;;;;;68.23;41.63;;;;;;;3.87;93.70;99413.97;5052324;28;20684;-58
2022/03/07 05:47:56;;;;;;;60.57;39.37;;;;;;;3.72;93.93;99410.75;5052547;28;20192;-57
2022/03/07 05:50:24;;;;;;;67.07;40.13;;;;;;;3.80;94.17;99408.53;5052838;28;20227;-58
2022/03/07 05:52:51;;;;;;;59.37;36.13;;;;;;;3.90;93.15;99403.03;5052823;28;20255;-58
2022/03/07 05:55:18;;;;;;;55.60;32.93;;;;;;;3.97;92.94;99400.81;5052684;28;20192;-58
2022/03/07 05:57:45;;;;;;;45.00;29.77;;;;;;;3.94;93.16;99407.44;5052313;28;20655;-57
2022/03/07 06:00:13;;;;;;;51.00;32.10;;;;;;;3.99;92.65;99405.94;5052377;28;20203;-58
2022/03/07 06:02:40;;;;;;;52.65;35.67;;;;;;;4.15;92.42;99401.53;5051406;28;20523;-58
2022/03/07 06:05:07;;;;;;;43.37;30.03;;;;;;;4.23;92.81;99406.06;5052108;28;20688;-57
2022/03/07 06:07:36;;;;;;;50.40;30.73;;;;;;;4.30;91.38;99411.44;5051422;28;20364;-57
2022/03/07 06:10:04;;;;;;;54.95;38.53;;;;;;;4.40;91.62;99411.00;5051243;28;20532;-57
2022/03/07 06:12:31;;;;;;;48.80;32.80;;;;;;;4.47;91.23;99415.53;5052655;28;21016;-59
2022/03/07 06:15:03;;;;;;;50.13;31.60;;;;;;;4.49;90.34;99413.91;5052309;28;20196;-58
2022/03/07 06:17:30;;;;;;;45.83;30.00;;;;;;;4.49;90.58;99408.81;5051901;28;20218;-58
2022/03/07 06:19:57;;;;;;;41.83;28.07;;;;;;;4.56;90.74;99417.56;5050438;28;20535;-58
2022/03/07 06:22:24;;;;;;;42.73;28.20;;;;;;;4.63;90.08;99419.50;5051427;28;20192;-59
2022/03/07 06:24:53;;;;;;;44.23;28.83;;;;;;;4.68;89.66;99426.50;5051731;28;20363;-59
2022/03/07 06:27:20;;;;;;;44.30;29.37;;;;;;;4.75;90.42;99415.75;5052068;28;20195;-58
2022/03/07 06:29:46;;;;;;;52.37;32.50;;;;;;;4.80;90.41;99417.59;5051677;28;20232;-57
2022/03/07 06:32:13;;;;;;;46.10;32.10;;;;;;;4.87;89.58;99409.38;5051159;28;20219;-58
2022/03/07 06:34:40;;;;;;;45.73;30.47;;;;;;;4.95;89.87;99413.94;5051489;28;20715;-58
2022/03/07 06:37:07;;;;;;;48.03;32.70;;;;;;;4.99;90.74;99417.47;5051322;28;20454;-58
2022/03/07 06:39:34;;;;;;;48.97;31.47;;;;;;;5.02;90.39;99410.84;5051439;28;20469;-58
2022/03/07 06:42:03;;;;;;;50.47;32.67;;;;;;;5.07;91.24;99416.09;5050900;28;20192;-58
2022/03/07 06:44:30;;;;;;;56.87;37.07;;;;;;;5.12;90.32;99412.00;5050541;28;20204;-57
2022/03/07 06:46:56;;;;;;;61.93;37.87;;;;;;;5.12;89.85;99415.44;5051227;28;20201;-57
2022/03/07 06:49:23;;;;;;;65.57;40.93;;;;;;;5.11;89.97;99395.88;5051352;28;20276;-58
2022/03/07 06:51:50;;;;;;;63.37;37.83;;;;;;;5.18;90.58;99397.84;5051177;28;20222;-57
2022/03/07 06:54:17;;;;;;;70.50;47.42;;;;;;;5.33;90.36;99406.00;5050227;28;20930;-58
2022/03/07 06:56:44;;;;;;;61.03;38.37;;;;;;;5.41;89.20;99406.28;5051063;28;20202;-57
2022/03/07 06:59:12;;;;;;;61.97;41.10;;;;;;;5.46;89.05;99406.44;5051190;28;20228;-58
2022/03/07 07:01:39;;;;;;;76.72;48.15;;;;;;;5.52;88.30;99409.22;5050327;28;20431;-58
2022/03/07 07:04:06;;;;;;;58.33;37.47;;;;;;;5.52;87.48;99409.22;5050907;28;20210;-58
2022/03/07 07:06:33;;;;;;;61.97;38.33;;;;;;;5.47;87.71;99401.38;5050945;28;20241;-58
2022/03/07 07:09:00;;;;;;;63.40;37.07;;;;;;;5.24;87.57;99403.16;5050785;28;20197;-58
2022/03/07 07:11:27;;;;;;;64.97;38.73;;;;;;;5.30;87.77;99405.91;5050584;28;20193;-58
2022/03/07 07:13:54;;;;;;;68.40;38.23;;;;;;;5.33;88.03;99406.00;5051162;28;20200;-58
2022/03/07 07:16:22;;;;;;;64.07;37.47;;;;;;;5.41;88.91;99411.38;5050973;28;20283;-58
2022/03/07 07:18:49;;;;;;;78.75;49.67;;;;;;;5.54;89.56;99415.22;5050247;28;20533;-58
2022/03/07 07:21:16;;;;;;;68.43;40.03;;;;;;;5.61;88.74;99409.50;5050657;28;20750;-58
2022/03/07 07:23:43;;;;;;;66.13;39.20;;;;;;;5.68;88.08;99414.00;5050817;28;20187;-59
2022/03/07 07:26:10;;;;;;;72.32;43.10;;;;;;;5.72;88.39;99388.66;5050326;28;20435;-58
2022/03/07 07:28:37;;;;;;;65.00;39.03;;;;;;;6.00;88.07;99410.00;5050361;28;20246;-59
2022/03/07 07:31:04;;;;;;;58.53;37.10;;;;;;;6.06;87.07;99403.44;5047195;28;20192;-58
2022/03/07 07:33:33;;;;;;;64.00;37.60;;;;;;;6.16;86.31;99408.00;5047788;28;20215;-58
2022/03/07 07:36:00;;;;;;;65.50;39.13;;;;;;;6.13;86.76;99397.69;5053977;28;20682;-59
2022/03/07 07:38:27;;;;;;;68.97;38.90;;;;;;;6.16;87.08;99396.94;5070661;28;20199;-58
2022/03/07 07:40:55;;;;;;;61.53;37.00;;;;;;;6.15;86.59;99391.00;5060023;28;20290;-57
2022/03/07 07:43:23;;;;;;;54.70;33.90;;;;;;;6.21;85.63;99397.94;5048090;28;20189;-58
2022/03/07 07:45:49;;;;;;;59.20;33.97;;;;;;;6.13;84.68;99394.28;5045127;28;20203;-58
2022/03/07 07:48:16;;;;;;;54.30;33.63;;;;;;;6.16;85.33;99394.38;5030462;28;20190;-58
2022/03/07 07:50:44;;;;;;;55.07;34.93;;;;;;;6.18;85.09;99385.13;5043387;28;20229;-58
2022/03/07 07:53:11;;;;;;;52.40;32.70;;;;;;;6.32;84.77;99383.84;5049071;28;20206;-58
2022/03/07 07:55:38;;;;;;;53.23;34.03;;;;;;;6.40;84.24;99396.00;5048207;28;20192;-58
2022/03/07 07:58:05;;;;;;;58.97;36.40;;;;;;;6.53;84.81;99389.63;5047703;28;20198;-58
2022/03/07 08:00:32;;;;;;;65.33;39.00;;;;;;;6.67;84.12;99384.94;5048859;28;20658;-58
2022/03/07 08:02:59;;;;;;;56.43;34.37;;;;;;;6.74;83.47;99395.34;5049230;28;20181;-58
2022/03/07 08:05:26;;;;;;;47.23;30.83;;;;;;;6.83;82.71;99385.41;5048105;28;20880;-57
2022/03/07 08:07:54;;;;;;;40.90;27.50;;;;;;;6.81;82.81;99396.41;5048346;28;20685;-58
2022/03/07 08:10:21;;;;;;;47.63;30.93;;;;;;;6.67;81.75;99367.06;5045963;28;20196;-58
2022/03/07 08:12:48;;;;;;;42.83;28.87;;;;;;;6.98;81.12;99392.63;5048438;28;20234;-58
2022/03/07 08:15:15;;;;;;;44.73;28.63;;;;;;;7.04;81.47;99387.72;5048979;28;20203;-58
2022/03/07 08:17:46;;;;;;;36.73;25.73;;;;;;;7.17;80.80;99391.50;5049950;28;20227;-58
2022/03/07 08:20:13;;;;;;;34.90;23.30;;;;;;;7.30;81.03;99396.09;5046645;28;20566;-57
2022/03/07 08:22:40;;;;;;;31.43;21.17;;;;;;;7.32;80.65;99397.88;5047788;28;20209;-58
2022/03/07 08:25:10;;;;;;;27.47;19.03;;;;;;;7.05;79.16;99384.34;5045849;28;20200;-61
2022/03/07 08:27:37;;;;;;;31.50;19.23;;;;;;;7.16;79.02;99390.63;5047610;28;20186;-61
2022/03/07 08:30:07;;;;;;;33.97;22.13;;;;;;;6.87;80.17;99384.66;5049447;28;20238;-61
2022/03/07 08:32:34;;;;;;;34.03;22.97;;;;;;;6.93;80.44;99389.97;5049651;28;20225;-61
2022/03/07 08:35:02;;;;;;;33.93;20.97;;;;;;;6.75;79.42;99392.00;5049798;28;20565;-62
2022/03/07 08:37:29;;;;;;;31.90;20.97;;;;;;;6.54;80.60;99393.88;5050034;28;20717;-62
2022/03/07 08:39:56;;;;;;;31.70;20.50;;;;;;;6.34;81.36;99395.84;5049555;28;20206;-61
2022/03/07 08:42:24;;;;;;;29.97;19.47;;;;;;;6.39;82.30;99393.44;5049831;28;20187;-62
2022/03/07 08:44:52;;;;;;;28.63;19.63;;;;;;;6.51;82.09;99397.22;5049211;28;20229;-60
2022/03/07 08:47:19;;;;;;;28.77;20.30;;;;;;;6.64;81.39;99402.69;5048612;28;20263;-62
2022/03/07 08:49:46;;;;;;;33.07;20.07;;;;;;;6.70;80.83;99390.13;5049935;28;20286;-61
2022/03/07 08:52:15;;;;;;;25.33;17.90;;;;;;;6.77;80.84;99399.69;5049839;28;20225;-61
2022/03/07 08:54:42;;;;;;;29.27;21.37;;;;;;;6.74;79.83;99395.34;5051301;28;20230;-62
2022/03/07 08:57:09;;;;;;;31.03;21.40;;;;;;;6.72;80.00;99394.44;5053268;28;20204;-62
2022/03/07 08:59:38;;;;;;;28.73;19.47;;;;;;;6.79;80.75;99392.94;5053292;28;20200;-62
2022/03/07 09:02:05;;;;;;;31.27;21.70;;;;;;;6.83;79.96;99393.09;5053240;28;20686;-62
2022/03/07 09:04:32;;;;;;;29.13;19.33;;;;;;;6.94;79.87;99390.84;5052954;28;20527;-63
2022/03/07 09:06:59;;;;;;;33.37;24.40;;;;;;;7.09;80.14;99384.47;5052911;28;20670;-62
2022/03/07 09:09:28;;;;;;;31.53;21.47;;;;;;;7.30;79.10;99386.75;5052163;28;20547;-62
2022/03/07 09:11:54;;;;;;;25.67;19.40;;;;;;;7.42;78.01;99387.06;5050458;28;20242;-63
2022/03/07 09:14:21;;;;;;;26.27;20.90;;;;;;;7.48;77.90;99389.78;5050781;28;20439;-61
2022/03/07 09:16:50;;;;;;;24.47;17.47;;;;;;;7.54;76.89;99389.97;5050755;28;20207;-61
2022/03/07 09:19:17;;;;;;;24.77;15.77;;;;;;;7.39;76.43;99391.25;5049051;28;20674;-62
2022/03/07 09:21:44;;;;;;;24.37;17.40;;;;;;;7.42;76.58;99391.31;5048974;28;20670;-62
2022/03/07 09:24:11;;;;;;;25.30;17.37;;;;;;;7.56;77.14;99395.09;5049707;28;20189;-62
2022/03/07 09:26:38;;;;;;;22.77;17.10;;;;;;;7.59;76.95;99396.06;5049689;28;20279;-62
2022/03/07 09:29:05;;;;;;;32.73;16.93;;;;;;;7.64;76.69;99391.06;5049703;28;20235;-62
2022/03/07 09:31:32;;;;;;;25.33;16.97;;;;;;;7.68;76.83;99398.00;5050249;28;20281;-61
2022/03/07 09:34:00;;;;;;;25.15;19.52;;;;;;;7.72;75.62;99390.44;5051541;28;20471;-62
2022/03/07 09:36:27;;;;;;;24.30;17.40;;;;;;;7.82;75.51;99385.56;5052339;28;20294;-62
2022/03/07 09:38:54;;;;;;;25.83;18.53;;;;;;;7.91;75.79;99391.75;5052530;28;20254;-62
2022/03/07 09:41:21;;;;;;;31.65;21.50;;;;;;;8.01;75.95;99387.75;5051870;28;20534;-62
2022/03/07 09:43:48;;;;;;;26.63;17.90;;;;;;;8.05;73.73;99384.41;5052577;28;20211;-63
2022/03/07 09:46:16;;;;;;;27.30;16.30;;;;;;;8.10;73.12;99387.97;5052564;28;20309;-62
2022/03/07 09:48:44;;;;;;;27.07;17.90;;;;;;;8.20;72.64;99382.25;5052237;28;20204;-63
2022/03/07 09:51:12;;;;;;;31.20;18.77;;;;;;;8.29;73.07;99383.34;5052232;28;20199;-63
2022/03/07 09:53:39;;;;;;;27.47;18.17;;;;;;;8.10;72.75;99378.56;5052040;28;20212;-62
2022/03/07 09:56:06;;;;;;;27.10;18.63;;;;;;;8.16;73.72;99381.28;5051763;28;20282;-63
2022/03/07 09:58:33;;;;;;;26.47;17.90;;;;;;;8.18;74.27;99383.91;5052147;28;20198;-62
2022/03/07 10:01:08;;;;;;;29.80;19.13;;;;;;;8.20;73.77;99379.69;5051793;28;20297;-62
2022/03/07 10:03:35;;;;;;;34.53;22.77;;;;;;;8.23;73.75;99374.63;5051538;28;20189;-62
2022/03/07 10:06:03;;;;;;;29.73;16.63;;;;;;;7.89;72.13;99374.63;5050667;28;20567;-62
2022/03/07 10:08:31;;;;;;;32.58;22.48;;;;;;;7.87;74.42;99373.75;5051654;28;20817;-61
2022/03/07 10:10:58;;;;;;;30.10;19.70;;;;;;;7.82;73.73;99377.88;5052003;28;20194;-62
2022/03/07 10:13:26;;;;;;;30.57;20.73;;;;;;;7.75;75.46;99386.25;5051702;28;20555;-63
2022/03/07 10:15:58;;;;;;;33.63;20.73;;;;;;;7.55;75.40;99380.63;5051882;28;20202;-63
2022/03/07 10:18:26;;;;;;;31.57;19.70;;;;;;;7.43;75.95;99381.16;5051790;28;20199;-62
2022/03/07 10:20:55;;;;;;;30.30;19.80;;;;;;;7.37;76.00;99380.97;5051614;28;20190;-63
2022/03/07 10:23:25;;;;;;;29.87;18.93;;;;;;;7.39;76.38;99386.16;5051740;28;20196;-63
2022/03/07 10:25:53;;;;;;;31.77;21.70;;;;;;;7.39;76.19;99375.91;5051769;28;20196;-61
2022/03/07 10:28:20;;;;;;;32.90;22.00;;;;;;;7.39;76.12;99373.38;5051847;28;20629;-62
2022/03/07 10:30:47;;;;;;;29.30;19.33;;;;;;;7.30;76.45;99370.56;5051420;28;20230;-62
2022/03/07 10:33:15;;;;;;;30.37;19.37;;;;;;;7.22;76.63;99375.47;5051335;28;20306;-62
2022/03/07 10:35:45;;;;;;;28.90;19.43;;;;;;;7.17;76.67;99366.78;5051473;28;20736;-61
2022/03/07 10:38:14;;;;;;;32.67;21.47;;;;;;;7.11;76.54;99362.38;5051367;28;20284;-61
2022/03/07 10:40:43;;;;;;;28.20;18.10;;;;;;;7.12;77.29;99359.00;5051356;28;20196;-62
2022/03/07 10:43:12;;;;;;;29.40;19.40;;;;;;;7.09;76.62;99356.38;5043434;28;20231;-61
2022/03/07 10:45:47;;;;;;;33.50;21.33;;;;;;;7.10;76.91;99357.22;5051155;28;20193;-63
2022/03/07 10:48:14;;;;;;;30.10;19.53;;;;;;;7.10;76.69;99347.00;5051508;28;20190;-63
2022/03/07 10:50:42;;;;;;;32.10;19.73;;;;;;;7.14;76.83;99348.84;5051163;28;20198;-61
2022/03/07 10:53:09;;;;;;;26.70;17.83;;;;;;;7.17;76.65;99355.72;5050677;28;20224;-62
2022/03/07 10:55:36;;;;;;;30.37;18.77;;;;;;;7.18;75.86;99349.78;5051152;28;20212;-62
2022/03/07 10:58:08;;;;;;;27.13;17.93;;;;;;;7.14;77.01;99351.41;5050769;28;20634;-63
2022/03/07 11:00:48;;;;;;;27.00;17.50;;;;;;;7.09;76.59;99347.81;5051358;28;20201;-62
2022/03/07 11:03:20;;;;;;;26.23;17.90;;;;;;;7.09;76.81;99338.47;5051210;28;20278;-61
2022/03/07 11:05:47;;;;;;;34.45;24.42;;;;;;;7.12;76.58;99330.91;5049645;28;20897;-63
2022/03/07 11:08:15;;;;;;;30.93;22.37;;;;;;;7.17;76.77;99333.56;5050943;28;20194;-62
2022/03/07 11:10:46;;;;;;;34.20;22.77;;;;;;;7.20;76.76;99304.72;5050637;28;20196;-62
2022/03/07 11:13:15;;;;;;;37.73;23.17;;;;;;;7.40;76.84;99324.84;5050718;28;20346;-63
2022/03/07 11:15:45;;;;;;;33.23;22.57;;;;;;;7.45;76.20;99325.81;5051076;28;20201;-61
2022/03/07 11:18:12;;;;;;;33.77;20.83;;;;;;;7.53;75.72;99326.00;5050762;28;20207;-62
2022/03/07 11:20:42;;;;;;;34.03;23.50;;;;;;;7.52;75.56;99325.16;5050448;28;20258;-62
2022/03/07 11:23:11;;;;;;;37.77;24.07;;;;;;;7.53;75.60;99321.75;5050438;28;20192;-63
2022/03/07 11:25:39;;;;;;;33.88;24.20;;;;;;;7.57;75.93;99315.03;5049882;28;20462;-62